United States > Florida

Melbourne, FL

10:25 AM EDT on July 07, 2015 (GMT -0400)
Timber Ridge | | Change Station
CLOSE
Current Station
Personal Weather Station
Location: West Melbourne, FL
Elevation: 33 ft
Nearby Weather Stations

Elev 33 ft 28.07 °N, 80.65 °W | Updated 1 minute ago

Clear
Clear
85.1 °F
Feels Like 93 °F
N
0.0
Wind Variable Wind from WNW
Gusts 0.0 mph

Today
High -- | Low -- °F
--% Chance of Precip.
Yesterday
High -- | Low -- °F
Precip. -- in
6:31 AM 8:22 PM
Waning Gibbous, 64% visible
Pressure 30.19 in
Visibility 10.0 miles
Clouds Clear
Heat Index 93 °F
Dew Point 74 °F
Humidity 70%
Rainfall 0.00 in
Snow Depth Not available.
UV 7 out of 12
Pollen 2.20 out of 12
Air Quality Not available.
Flu Activity Not available.
METAR KMLB 071353Z 06003KT 10SM CLR 29/21 A3019 RMK AO2 SLP221 T02890206

More Conditions Fewer Conditions

Pressure 30.19 in
Visibility 10.0 miles
Clouds Clear
Heat Index 93 °F
Dew Point 74 °F
Humidity 70%
Rainfall 0.00 in
Snow Depth Not available.
UV 7 out of 12
Pollen 2.20 out of 12
Air Quality Not available.
Flu Activity Not available.
METAR KMLB 071353Z 06003KT 10SM CLR 29/21 A3019 RMK AO2 SLP221 T02890206

More Conditions Fewer Conditions

Nowcast | as of 6:07 am EDT on July 7, 2015

Isolated showers and perhaps a thunderstorm will be possible early this morning along the Treasure Coast with brief downpours. The East Coast sea breeze will develop by late morning or early afternoon and move slowly inland through the day. Conditions are favorable for the development of scattered showers and lightning storms in the afternoon in association with the sea breeze...a few of which could be on the strong side. The main threats with heavier activity includes frequent cloud to ground lightning...torrential downpours...small hail...and wind gusts to around 50 mph. Showers and storms will favor the coastal areas late this morning and early afternoon...then focus will be across the interior for mid to late afternoon and evening. Additional details...including graphics are available online at: http://www.Srh.NOAA.Gov/mlb/blog.Php

×

10-Day Weather Forecast

×

Almanac

Astronomy

Jul. 07, 2015 Rise Set
Actual Time
Civil Twilight
Nautical Twilight
Astronomical Twilight
Moon
Length of Visible Light
Length of Day
Tomorrow will be .
, % of the Moon is Illuminated

Today's Extremes

State Highs State Lows

Community

WunderPhotos

Upload Photos

1,835,805 photos uploaded!

WunderBlogs® & News

Nearby

Air Quality

  Air Quality AQ Index Pollutant
Not available.

Snow Depth

Station Depth Elevation

Earthquake Activity

City Distance Mag. Time & Date
Minimum magnitude displayed is 2.5.

Coastal Water Temperatures

Place Temperature

Stations

Nearby Weather Stations

Station Location Temp. Windchill Dew Point Humidity Wind Precip. Elev Updated Type